createdAt,value
2017-09-22T00:02:25.299Z,99.90
2017-09-22T00:04:58.983Z,99.90
2017-09-22T00:07:27.998Z,99.90
2017-09-22T00:10:02.811Z,99.90
2017-09-22T00:12:38.370Z,99.90
2017-09-22T00:15:06.406Z,99.90
2017-09-22T00:17:35.430Z,99.90
2017-09-22T00:20:05.358Z,99.90
2017-09-22T00:22:34.302Z,99.90
2017-09-22T00:25:04.254Z,99.90
2017-09-22T00:27:33.179Z,99.90
2017-09-22T00:30:01.990Z,99.90
2017-09-22T00:32:30.026Z,99.90
2017-09-22T00:34:58.819Z,99.90
2017-09-22T00:37:27.780Z,99.90
2017-09-22T00:39:55.881Z,99.90
2017-09-22T00:42:27.442Z,99.90
2017-09-22T00:44:57.400Z,99.90
2017-09-22T00:47:25.434Z,99.90
2017-09-22T00:49:53.482Z,99.90
2017-09-22T00:52:24.214Z,99.90
2017-09-22T00:54:53.190Z,99.90
2017-09-22T00:57:21.222Z,99.90
2017-09-22T00:59:49.267Z,99.90
2017-09-22T01:02:17.302Z,99.90
2017-09-22T01:04:47.102Z,99.90
2017-09-22T01:07:15.126Z,99.90
2017-09-22T01:09:43.188Z,99.90
2017-09-22T01:12:11.214Z,99.90
2017-09-22T01:14:40.214Z,99.90
2017-09-22T01:17:08.270Z,99.90
2017-09-22T01:19:37.281Z,99.90
2017-09-22T01:22:05.314Z,99.90
2017-09-22T01:24:36.093Z,99.90
2017-09-22T01:27:09.049Z,99.90
2017-09-22T01:29:39.081Z,99.90
2017-09-22T01:32:10.977Z,99.90
2017-09-22T01:34:45.133Z,99.90
2017-09-22T01:37:14.177Z,99.90
2017-09-22T01:39:42.209Z,99.90
2017-09-22T01:42:10.265Z,99.90
2017-09-22T01:44:38.297Z,99.90
2017-09-22T01:47:06.342Z,99.90
2017-09-22T01:49:39.833Z,99.90
2017-09-22T01:52:08.629Z,99.90
2017-09-22T01:54:37.597Z,99.90
2017-09-22T01:57:05.625Z,99.90
2017-09-22T01:59:33.669Z,99.90
2017-09-22T02:02:03.453Z,99.90
2017-09-22T02:04:32.497Z,99.90
2017-09-22T02:07:00.545Z,99.90
2017-09-22T02:09:28.597Z,99.90
2017-09-22T02:12:05.085Z,99.90
2017-09-22T02:14:33.124Z,99.90
2017-09-22T02:17:01.185Z,99.90
2017-09-22T02:19:31.145Z,99.90
2017-09-22T02:22:00.121Z,99.90
2017-09-22T02:24:28.908Z,99.90
2017-09-22T02:26:57.733Z,99.90
2017-09-22T02:29:25.765Z,99.90
2017-09-22T02:31:56.449Z,99.90
2017-09-22T02:34:30.005Z,99.90
2017-09-22T02:36:59.716Z,99.90
2017-09-22T02:39:30.562Z,99.90
2017-09-22T02:41:58.630Z,99.90
2017-09-22T02:44:27.596Z,99.90
2017-09-22T02:47:08.737Z,99.90
2017-09-22T02:49:40.413Z,99.90
2017-09-22T02:52:11.413Z,99.90
2017-09-22T02:54:40.449Z,99.90
2017-09-22T02:57:08.474Z,99.90
2017-09-22T02:59:36.520Z,99.90
2017-09-22T03:02:04.565Z,99.90
2017-09-22T03:04:32.596Z,99.90
2017-09-22T03:07:00.662Z,99.90
2017-09-22T03:09:30.644Z,99.90
2017-09-22T03:11:58.681Z,99.90
2017-09-22T03:14:26.721Z,99.90
2017-09-22T03:16:55.744Z,99.90
2017-09-22T03:19:23.816Z,99.90
2017-09-22T03:22:00.197Z,99.90
2017-09-22T03:24:28.989Z,99.90
2017-09-22T03:26:57.787Z,99.90
2017-09-22T03:29:26.604Z,99.90
2017-09-22T03:31:56.556Z,99.90
2017-09-22T03:34:25.497Z,99.90
2017-09-22T03:36:53.545Z,99.90
2017-09-22T03:39:21.569Z,99.90
2017-09-22T03:42:07.754Z,99.90
2017-09-22T03:44:45.013Z,99.90
2017-09-22T03:47:13.040Z,99.90
2017-09-22T03:49:41.084Z,99.90
2017-09-22T03:52:11.029Z,99.90
2017-09-22T03:54:40.100Z,99.90
2017-09-22T03:57:08.152Z,99.90
2017-09-22T03:59:38.112Z,99.90
2017-09-22T04:02:12.664Z,99.90
2017-09-22T04:04:45.220Z,99.90
2017-09-22T04:07:13.270Z,99.90
2017-09-22T04:09:42.196Z,99.90
2017-09-22T04:12:11.984Z,99.90
2017-09-22T04:14:40.040Z,99.90
2017-09-22T04:17:09.043Z,99.90
2017-09-22T04:19:37.120Z,99.90
2017-09-22T04:22:05.179Z,99.90
2017-09-22T04:24:34.864Z,99.90
2017-09-22T04:27:02.893Z,99.90
2017-09-22T04:29:30.936Z,99.90
2017-09-22T04:31:58.972Z,99.90
2017-09-22T04:34:27.008Z,99.90
2017-09-22T04:36:56.988Z,99.90
2017-09-22T04:39:25.920Z,99.90
2017-09-22T04:42:07.112Z,99.90
2017-09-22T04:44:41.327Z,99.90
2017-09-22T04:47:09.380Z,99.90
2017-09-22T04:49:37.408Z,99.90
2017-09-22T04:52:05.448Z,99.90
2017-09-22T04:54:33.500Z,99.90
2017-09-22T04:57:01.532Z,99.90
2017-09-22T04:59:30.336Z,99.90
2017-09-22T05:02:01.144Z,99.90
2017-09-22T05:04:30.067Z,99.90
2017-09-22T05:06:58.136Z,99.90
2017-09-22T05:09:26.192Z,99.90
2017-09-22T05:11:56.903Z,99.90
2017-09-22T05:14:28.679Z,99.90
2017-09-22T05:16:57.492Z,99.90
2017-09-22T05:19:25.527Z,99.90
2017-09-22T05:21:53.603Z,99.90
2017-09-22T05:24:26.987Z,99.90
2017-09-22T05:26:55.923Z,99.90
2017-09-22T05:29:23.947Z,99.90
2017-09-22T05:31:56.023Z,99.90
2017-09-22T05:34:26.743Z,99.90
2017-09-22T05:37:12.487Z,99.90
2017-09-22T05:39:43.991Z,99.90
2017-09-22T05:42:12.032Z,99.90
2017-09-22T05:44:40.064Z,99.90
2017-09-22T05:47:09.028Z,99.90
2017-09-22T05:49:39.776Z,99.90
2017-09-22T05:52:11.192Z,99.90
2017-09-22T05:54:40.203Z,99.90
2017-09-22T05:57:10.915Z,99.90
2017-09-22T05:59:40.967Z,99.90
2017-09-22T06:02:09.939Z,99.90
2017-09-22T06:04:37.967Z,99.90
2017-09-22T06:07:06.029Z,99.90
2017-09-22T06:09:34.815Z,99.90
2017-09-22T06:12:04.767Z,99.90
2017-09-22T06:14:32.814Z,99.90
2017-09-22T06:17:04.383Z,99.90
2017-09-22T06:19:32.415Z,99.90
2017-09-22T06:22:01.455Z,99.90
2017-09-22T06:24:29.475Z,99.90
2017-09-22T06:26:59.443Z,99.90
2017-09-22T06:29:28.255Z,99.90
2017-09-22T06:31:57.215Z,99.90
2017-09-22T06:34:27.235Z,99.90
2017-09-22T06:36:55.299Z,99.90
2017-09-22T06:39:24.286Z,99.90
2017-09-22T06:41:58.583Z,99.90
2017-09-22T06:44:26.619Z,99.90
2017-09-22T06:46:55.580Z,99.90
2017-09-22T06:49:23.647Z,99.90
2017-09-22T06:51:54.679Z,99.90
2017-09-22T06:54:25.731Z,99.90
2017-09-22T06:57:07.062Z,99.90
2017-09-22T06:59:38.867Z,99.90
2017-09-22T07:02:07.675Z,99.90
2017-09-22T07:04:42.282Z,99.90
2017-09-22T07:07:12.979Z,99.90
2017-09-22T07:09:44.782Z,99.90
2017-09-22T07:12:13.603Z,99.90
2017-09-22T07:14:46.490Z,99.90
2017-09-22T07:17:15.278Z,99.90
2017-09-22T07:19:47.510Z,99.90
2017-09-22T07:22:21.828Z,99.90
2017-09-22T07:24:53.987Z,99.90
2017-09-22T07:27:22.995Z,99.90
2017-09-22T07:30:05.207Z,99.90
2017-09-22T07:32:35.223Z,99.90
2017-09-22T07:35:04.150Z,99.90
2017-09-22T07:37:35.530Z,99.90
2017-09-22T07:40:06.279Z,99.90
2017-09-22T07:42:35.271Z,99.90
2017-09-22T07:45:12.502Z,99.90
2017-09-22T07:47:40.546Z,99.90
2017-09-22T07:50:12.494Z,99.90
2017-09-22T07:52:44.242Z,99.90
2017-09-22T07:55:13.086Z,99.90
2017-09-22T07:57:42.150Z,99.90
2017-09-22T08:00:11.154Z,99.90
2017-09-22T08:02:40.303Z,99.90
2017-09-22T08:05:10.103Z,99.90
2017-09-22T08:07:38.162Z,99.90
2017-09-22T08:10:06.826Z,99.90
2017-09-22T08:12:35.626Z,99.90
2017-09-22T08:15:05.450Z,99.90
2017-09-22T08:17:37.526Z,99.90
2017-09-22T08:20:06.534Z,99.90
2017-09-22T08:22:35.331Z,99.90
2017-09-22T08:25:11.874Z,99.90
2017-09-22T08:27:40.861Z,99.90
2017-09-22T08:30:12.242Z,99.90
2017-09-22T08:32:45.734Z,99.90
2017-09-22T08:35:23.209Z,99.90
2017-09-22T08:37:51.230Z,99.90
2017-09-22T08:40:21.189Z,99.90
2017-09-22T08:42:52.850Z,99.90
2017-09-22T08:45:20.870Z,99.90
2017-09-22T08:47:48.917Z,99.90
2017-09-22T08:50:17.866Z,99.90
2017-09-22T08:53:04.098Z,99.90
2017-09-22T08:55:32.906Z,99.90
2017-09-22T08:58:02.842Z,99.90
2017-09-22T09:00:30.878Z,99.90
2017-09-22T09:03:15.866Z,99.90
2017-09-22T09:05:48.401Z,99.90
2017-09-22T09:11:10.869Z,99.90
2017-09-22T09:13:57.077Z,99.90
2017-09-22T09:16:25.131Z,99.90
2017-09-22T09:18:56.050Z,99.90
2017-09-22T09:21:29.861Z,99.90
2017-09-22T09:23:58.670Z,99.90
2017-09-22T09:26:27.466Z,99.90
2017-09-22T09:28:56.417Z,99.90
2017-09-22T09:31:25.414Z,99.90
2017-09-22T09:34:02.381Z,99.90
2017-09-22T09:36:30.425Z,99.90
2017-09-22T09:38:58.453Z,99.90
2017-09-22T09:41:28.369Z,99.90
2017-09-22T09:44:01.577Z,99.90
2017-09-22T09:46:29.621Z,99.90
2017-09-22T09:48:59.417Z,99.90
2017-09-22T09:51:29.453Z,99.90
2017-09-22T09:54:03.841Z,99.90
2017-09-22T09:56:32.892Z,99.90
2017-09-22T09:59:02.857Z,99.90
2017-09-22T10:01:36.805Z,99.90
2017-09-22T10:04:11.737Z,99.90
2017-09-22T10:06:39.787Z,99.90
2017-09-22T10:12:00.949Z,99.90
2017-09-22T10:14:30.945Z,99.90
2017-09-22T10:17:04.633Z,99.90
2017-09-22T10:19:37.433Z,99.90
2017-09-22T10:22:08.953Z,99.90
2017-09-22T10:24:40.304Z,99.90
2017-09-22T10:27:08.344Z,99.90
2017-09-22T10:29:36.427Z,99.90
2017-09-22T10:32:05.432Z,99.90
2017-09-22T10:34:33.493Z,99.90
2017-09-22T10:37:01.520Z,99.90
2017-09-22T10:39:33.110Z,99.90
2017-09-22T10:42:01.172Z,99.90
2017-09-22T10:44:29.196Z,99.90
2017-09-22T10:47:01.417Z,99.90
2017-09-22T10:49:34.236Z,99.90
2017-09-22T10:52:06.333Z,99.90
2017-09-22T10:54:34.360Z,99.90
2017-09-22T10:57:02.384Z,99.90
2017-09-22T10:59:31.548Z,99.90
2017-09-22T11:02:03.784Z,99.90
2017-09-22T11:04:31.828Z,99.90
2017-09-22T11:06:59.877Z,99.90
2017-09-22T11:09:28.916Z,99.90
2017-09-22T11:12:02.233Z,99.90
2017-09-22T11:14:32.955Z,99.90
2017-09-22T11:17:07.920Z,99.90
2017-09-22T11:19:36.841Z,99.90
2017-09-22T11:22:04.873Z,99.90
2017-09-22T11:24:34.879Z,99.90
2017-09-22T11:27:04.576Z,99.90
2017-09-22T11:29:34.381Z,99.90
2017-09-22T11:32:01.909Z,99.90
2017-09-22T11:34:32.964Z,99.90
2017-09-22T11:37:01.968Z,92.90
2017-09-22T11:39:30.216Z,88.60
2017-09-22T11:42:00.904Z,79.00
2017-09-22T11:44:29.720Z,74.40
2017-09-22T11:47:01.889Z,74.20
2017-09-22T11:49:29.948Z,77.50
2017-09-22T11:51:57.980Z,80.90
2017-09-22T11:54:28.711Z,85.20
2017-09-22T11:56:59.455Z,86.00
2017-09-22T11:59:30.920Z,85.90
2017-09-22T12:01:58.956Z,79.60
2017-09-22T12:04:26.984Z,69.30
2017-09-22T12:06:55.032Z,70.20
2017-09-22T12:09:27.496Z,68.20
2017-09-22T12:11:59.524Z,69.80
2017-09-22T12:14:27.556Z,69.80
2017-09-22T12:16:55.572Z,69.30
2017-09-22T12:19:23.604Z,62.90
2017-09-22T12:21:53.580Z,59.30
2017-09-22T12:24:22.379Z,56.80
2017-09-22T12:26:51.159Z,58.90
2017-09-22T12:29:25.521Z,60.00
2017-09-22T12:31:53.565Z,60.00
2017-09-22T12:34:21.604Z,60.70
2017-09-22T12:36:51.416Z,57.70
2017-09-22T12:39:20.388Z,57.60
2017-09-22T12:41:50.128Z,57.40
2017-09-22T12:44:18.919Z,55.00
2017-09-22T12:46:47.708Z,52.80
2017-09-22T12:49:16.497Z,52.00
2017-09-22T12:51:45.284Z,49.80
2017-09-22T12:54:13.308Z,49.80
2017-09-22T12:56:48.751Z,46.90
2017-09-22T12:59:16.794Z,44.90
2017-09-22T13:01:45.700Z,46.10
2017-09-22T13:04:13.748Z,45.20
2017-09-22T13:06:46.067Z,43.70
2017-09-22T13:09:14.095Z,44.70
2017-09-22T13:11:44.035Z,43.60
2017-09-22T13:14:12.064Z,39.70
2017-09-22T13:16:41.019Z,42.80
2017-09-22T13:19:10.943Z,42.10
2017-09-22T13:21:39.735Z,43.10
2017-09-22T13:24:08.551Z,42.90
2017-09-22T13:26:37.480Z,42.90
2017-09-22T13:29:05.501Z,40.90
2017-09-22T13:31:33.555Z,41.70
2017-09-22T13:34:02.355Z,39.50
2017-09-22T13:36:34.703Z,39.40
2017-09-22T13:39:03.499Z,44.10
2017-09-22T13:41:32.312Z,44.60
2017-09-22T13:44:02.100Z,45.10
2017-09-22T13:46:30.874Z,45.00
2017-09-22T13:49:00.663Z,46.90
2017-09-22T13:51:29.679Z,46.90
2017-09-22T13:53:58.651Z,45.40
2017-09-22T13:56:27.647Z,46.60
2017-09-22T13:58:56.449Z,45.00
2017-09-22T14:01:24.471Z,44.90
2017-09-22T14:03:52.483Z,44.30
2017-09-22T14:06:20.535Z,45.10
2017-09-22T14:08:49.451Z,43.90
2017-09-22T14:11:18.239Z,41.40
2017-09-22T14:13:47.043Z,41.60
2017-09-22T14:16:15.839Z,40.80
2017-09-22T14:18:44.610Z,41.10
2017-09-22T14:21:13.407Z,41.30
2017-09-22T14:23:43.195Z,40.90
2017-09-22T14:26:11.215Z,40.90
2017-09-22T14:28:41.163Z,40.50
2017-09-22T14:31:09.187Z,40.70
2017-09-22T14:33:37.235Z,43.00
2017-09-22T14:36:06.037Z,44.00
2017-09-22T14:38:34.979Z,44.00
2017-09-22T14:41:02.991Z,42.70
2017-09-22T14:43:31.038Z,44.80
2017-09-22T14:46:10.610Z,43.90
2017-09-22T14:48:49.271Z,44.40
2017-09-22T14:51:18.199Z,45.20
2017-09-22T14:53:47.875Z,45.50
2017-09-22T14:56:15.898Z,45.60
2017-09-22T14:58:44.838Z,44.90
2017-09-22T15:01:12.866Z,43.30
2017-09-22T15:03:40.994Z,42.10
2017-09-22T15:06:10.994Z,41.20
2017-09-22T15:08:42.678Z,40.80
2017-09-22T15:11:11.477Z,41.60
2017-09-22T15:13:42.314Z,42.30
2017-09-22T15:16:11.258Z,42.30
2017-09-22T15:18:41.282Z,44.80
2017-09-22T15:21:10.318Z,45.20
2017-09-22T15:23:40.301Z,44.30
2017-09-22T15:26:08.345Z,43.20
2017-09-22T15:28:36.382Z,43.30
2017-09-22T15:31:04.403Z,43.20
2017-09-22T15:33:37.754Z,43.50
2017-09-22T15:36:05.778Z,44.00
2017-09-22T15:38:33.794Z,46.20
2017-09-22T15:41:01.834Z,45.10
2017-09-22T15:43:31.613Z,45.20
2017-09-22T15:45:59.638Z,45.20
2017-09-22T15:48:27.674Z,47.30
2017-09-22T15:50:55.693Z,46.60
2017-09-22T15:53:27.834Z,45.60
2017-09-22T15:55:56.622Z,47.20
2017-09-22T15:58:25.565Z,47.20
2017-09-22T16:00:54.594Z,48.30
2017-09-22T16:03:23.961Z,49.90
2017-09-22T16:05:57.466Z,51.30
2017-09-22T16:08:27.490Z,53.30
2017-09-22T16:10:55.529Z,54.20
2017-09-22T16:13:24.301Z,53.70
2017-09-22T16:15:53.329Z,53.30
2017-09-22T16:18:22.330Z,51.10
2017-09-22T16:20:51.329Z,51.40
2017-09-22T16:23:26.834Z,51.80
2017-09-22T16:25:54.870Z,53.10
2017-09-22T16:28:23.834Z,52.60
2017-09-22T16:30:52.826Z,54.30
2017-09-22T16:33:21.845Z,54.80
2017-09-22T16:35:49.878Z,57.30
2017-09-22T16:38:19.905Z,59.40
2017-09-22T16:40:51.153Z,62.20
2017-09-22T16:43:20.122Z,65.40
2017-09-22T16:45:48.146Z,70.00
2017-09-22T16:48:16.185Z,76.60
2017-09-22T16:50:46.190Z,89.20
2017-09-22T16:53:15.130Z,99.90
2017-09-22T16:55:43.169Z,99.90
2017-09-22T16:58:11.961Z,99.90
2017-09-22T17:00:41.646Z,99.90
2017-09-22T17:03:09.725Z,99.90
2017-09-22T17:05:39.758Z,99.90
2017-09-22T17:08:08.564Z,99.90
2017-09-22T17:10:42.225Z,99.90
2017-09-22T17:13:11.785Z,99.90
2017-09-22T17:15:39.810Z,99.90
2017-09-22T17:18:08.621Z,99.90
2017-09-22T17:20:36.661Z,99.90
2017-09-22T17:23:09.453Z,99.90
2017-09-22T17:25:39.189Z,99.90
2017-09-22T17:28:07.961Z,99.90
2017-09-22T17:30:36.909Z,99.90
2017-09-22T17:33:04.941Z,99.90
2017-09-22T17:35:37.301Z,99.90
2017-09-22T17:38:07.269Z,99.90
2017-09-22T17:40:39.053Z,99.90
2017-09-22T17:43:10.889Z,99.90
2017-09-22T17:45:38.917Z,99.90
2017-09-22T17:48:06.949Z,99.90
2017-09-22T17:50:35.737Z,99.90
2017-09-22T17:53:05.549Z,99.90
2017-09-22T17:55:35.188Z,99.90
2017-09-22T17:58:03.228Z,99.90
2017-09-22T18:00:31.285Z,99.90
2017-09-22T18:03:01.033Z,99.90
2017-09-22T18:05:29.069Z,99.90
2017-09-22T18:08:00.769Z,99.90
2017-09-22T18:10:29.833Z,99.90
2017-09-22T18:12:58.805Z,99.90
2017-09-22T18:15:26.868Z,99.90
2017-09-22T18:18:03.316Z,99.90
2017-09-22T18:20:33.268Z,99.90
2017-09-22T18:23:02.073Z,99.90
2017-09-22T18:25:30.120Z,99.90
2017-09-22T18:27:58.160Z,99.90
2017-09-22T18:30:27.104Z,99.90
2017-09-22T18:32:56.828Z,99.90
2017-09-22T18:35:24.888Z,99.90
2017-09-22T18:37:53.693Z,99.90
2017-09-22T18:40:25.785Z,99.90
2017-09-22T18:42:53.832Z,99.90
2017-09-22T18:45:25.509Z,99.90
2017-09-22T18:47:54.492Z,99.90
2017-09-22T18:50:23.529Z,99.90
2017-09-22T18:52:53.556Z,99.90
2017-09-22T18:55:25.401Z,99.90
2017-09-22T18:57:53.452Z,99.90
2017-09-22T19:00:21.485Z,99.90
2017-09-22T19:02:49.508Z,99.90
2017-09-22T19:05:18.448Z,99.90
2017-09-22T19:07:46.476Z,99.90
2017-09-22T19:10:14.504Z,99.90
2017-09-22T19:12:42.552Z,99.90
2017-09-22T19:15:12.596Z,99.90
2017-09-22T19:17:41.644Z,99.90
2017-09-22T19:20:10.464Z,99.90
2017-09-22T19:22:40.252Z,99.90
2017-09-22T19:25:09.068Z,99.90
2017-09-22T19:27:38.096Z,99.90
2017-09-22T19:30:06.136Z,99.90
2017-09-22T19:32:34.200Z,99.90
2017-09-22T19:35:02.999Z,99.90
2017-09-22T19:37:31.036Z,99.90
2017-09-22T19:39:59.100Z,99.90
2017-09-22T19:42:27.983Z,99.90
2017-09-22T19:44:57.664Z,99.90
2017-09-22T19:47:44.956Z,99.90
2017-09-22T19:50:14.019Z,99.90
2017-09-22T19:52:42.936Z,99.90
2017-09-22T19:55:10.980Z,99.90
2017-09-22T19:57:39.120Z,99.90
2017-09-22T20:00:10.976Z,99.90
2017-09-22T20:02:42.436Z,99.90
2017-09-22T20:05:10.479Z,99.90
2017-09-22T20:07:41.732Z,99.90
2017-09-22T20:10:09.767Z,99.90
2017-09-22T20:12:38.803Z,99.90
2017-09-22T20:15:06.836Z,99.90
2017-09-22T20:17:40.555Z,99.90
2017-09-22T20:20:08.592Z,99.90
2017-09-22T20:22:36.636Z,99.90
2017-09-22T20:25:07.360Z,99.90
2017-09-22T20:27:38.091Z,99.90
2017-09-22T20:30:07.066Z,99.90
2017-09-22T20:32:35.100Z,99.90
2017-09-22T20:35:05.060Z,99.90
2017-09-22T20:37:37.355Z,99.90
2017-09-22T20:40:06.158Z,99.90
2017-09-22T20:42:34.379Z,99.90
2017-09-22T20:45:03.391Z,99.90
2017-09-22T20:47:32.223Z,99.90
2017-09-22T20:50:00.288Z,99.90
2017-09-22T20:52:28.386Z,99.90
2017-09-22T20:54:59.182Z,99.90
2017-09-22T20:57:27.220Z,99.90
2017-09-22T20:59:58.791Z,99.90
2017-09-22T21:02:26.835Z,99.90
2017-09-22T21:04:56.851Z,99.90
2017-09-22T21:07:25.855Z,99.90
2017-09-22T21:09:53.902Z,99.90
2017-09-22T21:12:22.914Z,99.90
2017-09-22T21:14:50.966Z,99.90
2017-09-22T21:17:19.022Z,99.90
2017-09-22T21:19:47.058Z,99.90
2017-09-22T21:22:15.126Z,99.90
2017-09-22T21:24:44.086Z,99.90
2017-09-22T21:27:15.866Z,99.90
2017-09-22T21:29:46.714Z,99.90
2017-09-22T21:32:14.742Z,99.90
2017-09-22T21:35:01.829Z,99.90
2017-09-22T21:37:34.167Z,99.90
2017-09-22T21:40:04.871Z,99.90
2017-09-22T21:42:32.918Z,99.90
2017-09-22T21:45:04.698Z,99.90
2017-09-22T21:47:32.734Z,99.90
2017-09-22T21:50:00.770Z,99.90
2017-09-22T21:52:28.806Z,99.90
2017-09-22T21:54:57.819Z,99.90
2017-09-22T21:57:26.610Z,99.90
2017-09-22T21:59:54.650Z,99.90
2017-09-22T22:02:23.682Z,99.90
2017-09-22T22:04:57.334Z,99.90
2017-09-22T22:07:30.330Z,99.90
2017-09-22T22:09:58.360Z,99.90
2017-09-22T22:12:26.981Z,99.90
2017-09-22T22:14:56.338Z,99.90
2017-09-22T22:17:24.358Z,99.90
2017-09-22T22:19:52.394Z,99.90
2017-09-22T22:22:21.350Z,99.90
2017-09-22T22:24:52.182Z,99.90
2017-09-22T22:27:20.978Z,99.90
2017-09-22T22:29:49.082Z,99.90
2017-09-22T22:32:18.473Z,99.90
2017-09-22T22:34:47.286Z,99.90
2017-09-22T22:37:21.318Z,99.90
2017-09-22T22:39:49.330Z,99.90
2017-09-22T22:42:20.910Z,99.90
2017-09-22T22:44:50.865Z,99.90
2017-09-22T22:47:20.645Z,99.90
2017-09-22T22:49:52.661Z,99.90
2017-09-22T22:52:26.229Z,99.90
2017-09-22T22:54:54.266Z,99.90
2017-09-22T22:57:23.189Z,99.90
2017-09-22T22:59:53.113Z,99.90
2017-09-22T23:02:29.005Z,99.90
2017-09-22T23:04:57.045Z,99.90
2017-09-22T23:07:25.841Z,99.90
2017-09-22T23:09:54.654Z,99.90
2017-09-22T23:12:22.681Z,99.90
2017-09-22T23:14:55.356Z,99.90
2017-09-22T23:17:34.137Z,99.90
2017-09-22T23:20:03.189Z,99.90
2017-09-22T23:22:35.787Z,99.90
2017-09-22T23:25:03.829Z,99.90
2017-09-22T23:27:34.513Z,99.90
2017-09-22T23:30:02.545Z,99.90
2017-09-22T23:32:32.261Z,99.90
2017-09-22T23:35:01.226Z,99.90
2017-09-22T23:37:29.249Z,99.90
2017-09-22T23:40:09.013Z,99.90
2017-09-22T23:42:37.817Z,99.90
2017-09-22T23:45:05.861Z,99.90
2017-09-22T23:47:33.889Z,99.90
2017-09-22T23:50:01.913Z,99.90
2017-09-22T23:52:36.125Z,99.90
2017-09-22T23:55:04.166Z,99.90
2017-09-22T23:57:32.205Z,99.90
